Terminal Aerodrome Forecast
Issued by NWS

Home | Current Version | Previous Version | Text Only | Print | Product List | Glossary On
Versions: 1 2 3 4 5 6 7 8 9 10 11 12 13 14 15 16 17
207
FTUS41 KALY 262321
TAFPSF
TAF
KPSF 262321Z 2700/2724 19009KT P6SM BKN045 BKN120 WS020/19030KT
     FM270600 20007KT 3SM -SHRA BR BKN015 OVC025 WS020/20035KT
     FM270800 23005KT 2SM -SHRA BR BKN008 OVC015
     FM271000 27005KT 1 1/2SM BR VCSH BKN004 OVC008
     FM271300 29005KT P6SM SCT012 OVC020
     FM271700 26007KT P6SM SCT045=

USA.gov is the U.S. government's official web portal to all federal, state and local government web resources and services.